Time;durP1;ratioP1;P1;durP2;ratioP2;P2;SDS_P1;SDS_P2;PMS_P1;PMS_P2;Temp;Humidity;BMP_temperature;BMP_pressure;BME280_temperature;BME280_humidity;BME280_pressure;Samples;Min_cycle;Max_cycle;Signal;HPM_P1;HPM_P2
2021/07/04 00:01:08;;;;;;;5.67;5.10;;;18.60;99.90;;;;;;5012667;28;20485;-52
2021/07/04 00:03:35;;;;;;;6.40;5.80;;;18.70;99.90;;;;;;5012511;28;20453;-51
2021/07/04 00:06:02;;;;;;;6.33;5.20;;;18.60;99.90;;;;;;5012544;28;20474;-52
2021/07/04 00:08:29;;;;;;;6.40;5.30;;;18.60;99.90;;;;;;5011902;28;20602;-51
2021/07/04 00:10:59;;;;;;;6.70;5.30;;;18.60;99.90;;;;;;5011946;28;20891;-52
2021/07/04 00:13:28;;;;;;;8.20;5.30;;;18.60;99.90;;;;;;5012393;28;20519;-51
2021/07/04 00:15:56;;;;;;;6.90;5.97;;;18.60;99.90;;;;;;5012328;28;20484;-51
2021/07/04 00:18:24;;;;;;;6.97;5.43;;;18.60;99.90;;;;;;5012434;28;20449;-53
2021/07/04 00:20:53;;;;;;;9.80;5.80;;;18.50;99.90;;;;;;5012477;28;20485;-51
2021/07/04 00:23:21;;;;;;;6.60;5.87;;;18.50;99.90;;;;;;5011206;28;20802;-50
2021/07/04 00:25:49;;;;;;;6.00;5.40;;;18.50;99.90;;;;;;5012055;28;20983;-51
2021/07/04 00:28:17;;;;;;;9.20;6.20;;;18.50;99.90;;;;;;5012324;28;20453;-51
2021/07/04 00:30:45;;;;;;;9.83;6.27;;;18.50;99.90;;;;;;5012290;28;20458;-52
2021/07/04 00:33:12;;;;;;;6.93;5.93;;;18.50;99.90;;;;;;5011997;28;20519;-50
2021/07/04 00:35:39;;;;;;;7.90;5.90;;;18.40;99.90;;;;;;5011484;28;20469;-52
2021/07/04 00:38:08;;;;;;;7.97;6.27;;;18.40;99.90;;;;;;5011724;28;20504;-51
2021/07/04 00:40:36;;;;;;;6.07;5.30;;;18.40;99.90;;;;;;5012010;28;20500;-51
2021/07/04 00:43:04;;;;;;;6.20;5.60;;;18.50;99.90;;;;;;5011453;28;20553;-50
2021/07/04 00:45:31;;;;;;;6.30;5.70;;;18.50;99.90;;;;;;5011882;28;20473;-51
2021/07/04 00:47:59;;;;;;;10.20;6.77;;;18.50;99.90;;;;;;5012207;28;20449;-51
2021/07/04 00:50:29;;;;;;;7.53;5.60;;;18.50;99.90;;;;;;5011280;28;20910;-51
2021/07/04 00:52:58;;;;;;;9.37;6.10;;;18.40;99.90;;;;;;5011635;28;20875;-51
2021/07/04 00:55:25;;;;;;;8.37;6.30;;;18.30;99.90;;;;;;5011756;28;20879;-51
2021/07/04 00:57:53;;;;;;;8.07;6.07;;;18.30;99.90;;;;;;5009551;28;20458;-51
2021/07/04 01:00:23;;;;;;;8.00;6.33;;;18.30;99.90;;;;;;4993444;28;20516;-52
2021/07/04 01:02:50;;;;;;;6.90;6.20;;;18.40;99.90;;;;;;4991896;28;20552;-52
2021/07/04 01:05:20;;;;;;;9.20;6.63;;;18.40;99.90;;;;;;5009981;28;21002;-51
2021/07/04 01:07:48;;;;;;;7.80;6.50;;;18.40;99.90;;;;;;5011864;28;20496;-51
2021/07/04 01:10:18;;;;;;;8.27;6.70;;;18.40;99.90;;;;;;5011932;28;20457;-51
2021/07/04 01:12:46;;;;;;;9.40;7.13;;;18.40;99.90;;;;;;5011488;28;20441;-52
2021/07/04 01:15:17;;;;;;;8.30;7.23;;;18.50;99.90;;;;;;5007987;28;20469;-51
2021/07/04 01:17:45;;;;;;;6.63;5.57;;;18.50;99.90;;;;;;5008915;28;20468;-50
2021/07/04 01:20:15;;;;;;;7.90;6.47;;;18.50;99.90;;;;;;5004400;28;20987;-52
2021/07/04 01:23:00;;;;;;;6.83;6.10;;;18.40;99.90;;;;;;5011133;28;20543;-52
2021/07/04 01:25:27;;;;;;;7.30;6.00;;;18.40;99.90;;;;;;5011608;28;20914;-52
2021/07/04 01:27:55;;;;;;;7.60;6.50;;;18.30;99.90;;;;;;5011578;28;20884;-52
2021/07/04 01:30:23;;;;;;;6.90;6.20;;;18.30;99.90;;;;;;5011768;28;20454;-50
2021/07/04 01:32:51;;;;;;;7.63;5.67;;;18.30;99.90;;;;;;5010484;28;21108;-51
2021/07/04 01:35:19;;;;;;;8.50;6.53;;;18.30;99.90;;;;;;5011366;28;20979;-51
2021/07/04 01:37:46;;;;;;;9.13;6.60;;;18.30;99.90;;;;;;5011252;28;20461;-51
2021/07/04 01:40:15;;;;;;;8.47;5.83;;;18.20;99.90;;;;;;5010854;28;20449;-52
2021/07/04 01:42:45;;;;;;;7.97;6.00;;;18.20;99.90;;;;;;5011228;28;20571;-51
2021/07/04 01:45:15;;;;;;;7.47;6.73;;;18.40;99.90;;;;;;5011555;28;20480;-51
2021/07/04 01:47:45;;;;;;;7.10;6.40;;;18.40;99.90;;;;;;5010972;28;20458;-51
2021/07/04 01:50:15;;;;;;;8.20;7.07;;;18.30;99.90;;;;;;5014844;28;20500;-51
2021/07/04 01:52:42;;;;;;;8.33;6.90;;;18.20;99.90;;;;;;5014274;28;20448;-51
2021/07/04 01:55:11;;;;;;;6.73;6.03;;;18.20;99.90;;;;;;5015001;28;20469;-52
2021/07/04 01:57:39;;;;;;;5.83;5.30;;;18.30;99.90;;;;;;5014887;28;20511;-51
2021/07/04 02:00:09;;;;;;;6.70;6.00;;;18.30;99.90;;;;;;5014736;28;20454;-51
2021/07/04 02:02:38;;;;;;;6.93;6.23;;;18.30;99.90;;;;;;5011413;28;20535;-51
2021/07/04 02:05:05;;;;;;;9.30;6.73;;;18.30;99.90;;;;;;5014660;28;20473;-51
2021/07/04 02:07:33;;;;;;;10.27;7.30;;;18.30;99.90;;;;;;5014864;28;20441;-51
2021/07/04 02:10:00;;;;;;;7.93;6.57;;;18.20;99.90;;;;;;5014769;28;20453;-51
2021/07/04 02:12:27;;;;;;;10.10;7.07;;;18.20;99.90;;;;;;5014525;28;20445;-50
2021/07/04 02:14:55;;;;;;;7.17;6.23;;;18.20;99.90;;;;;;5013827;28;20998;-52
2021/07/04 02:17:22;;;;;;;11.00;7.27;;;18.10;99.90;;;;;;5014478;28;20998;-51
2021/07/04 02:19:49;;;;;;;10.00;7.03;;;18.20;99.90;;;;;;5014000;28;20947;-51
2021/07/04 02:22:16;;;;;;;8.40;7.00;;;18.10;99.90;;;;;;5014240;28;20488;-50
2021/07/04 02:24:43;;;;;;;8.43;7.10;;;18.00;99.90;;;;;;5014219;28;20528;-50
2021/07/04 02:27:11;;;;;;;10.37;7.03;;;18.00;99.90;;;;;;5014109;28;20446;-51
2021/07/04 02:29:38;;;;;;;8.57;7.37;;;18.00;99.90;;;;;;5014013;28;20449;-51
2021/07/04 02:32:08;;;;;;;8.20;7.30;;;18.10;99.90;;;;;;5014047;28;20462;-52
2021/07/04 02:34:35;;;;;;;9.77;7.63;;;18.10;99.90;;;;;;5013466;28;20484;-52
2021/07/04 02:37:02;;;;;;;7.67;6.87;;;18.20;99.90;;;;;;5013907;28;20450;-51
2021/07/04 02:39:29;;;;;;;11.13;7.13;;;18.10;99.90;;;;;;5014223;28;20500;-52
2021/07/04 02:41:55;;;;;;;8.47;7.10;;;18.10;99.90;;;;;;5013592;28;20518;-52
2021/07/04 02:44:22;;;;;;;9.80;6.80;;;18.10;99.90;;;;;;5013292;28;20457;-50
2021/07/04 02:46:49;;;;;;;8.27;7.03;;;18.10;99.90;;;;;;5014220;28;20881;-50
2021/07/04 02:49:18;;;;;;;9.40;6.50;;;18.10;99.90;;;;;;5013736;28;20547;-52
2021/07/04 02:51:45;;;;;;;11.40;7.10;;;18.10;99.90;;;;;;5013908;28;20442;-51
2021/07/04 02:54:12;;;;;;;11.10;8.07;;;18.10;99.90;;;;;;5013481;28;20496;-51
2021/07/04 02:56:39;;;;;;;10.40;6.80;;;18.00;99.90;;;;;;5013697;28;20473;-51
2021/07/04 02:59:06;;;;;;;9.30;7.10;;;18.00;99.90;;;;;;5013551;28;20945;-51
2021/07/04 03:01:33;;;;;;;10.30;7.80;;;18.00;99.90;;;;;;5013130;28;20523;-52
2021/07/04 03:04:00;;;;;;;8.67;7.20;;;18.10;99.90;;;;;;5013534;28;20453;-51
2021/07/04 03:06:28;;;;;;;7.10;6.40;;;18.00;99.90;;;;;;5013106;28;20469;-51
2021/07/04 03:08:55;;;;;;;8.60;6.90;;;18.10;99.90;;;;;;5013513;28;20453;-51
2021/07/04 03:11:22;;;;;;;8.33;6.50;;;18.10;99.90;;;;;;5013583;28;20457;-50
2021/07/04 03:13:49;;;;;;;7.30;6.60;;;18.00;99.90;;;;;;5013216;28;20863;-52
2021/07/04 03:16:16;;;;;;;9.97;7.30;;;18.10;99.90;;;;;;5036441;23;20501;-57
2021/07/04 03:18:43;;;;;;;7.63;6.83;;;18.10;99.90;;;;;;5012309;28;20894;-58
2021/07/04 03:21:10;;;;;;;10.13;7.20;;;18.10;99.90;;;;;;5013015;28;20496;-58
2021/07/04 03:23:38;;;;;;;9.20;6.87;;;18.10;99.90;;;;;;5012897;28;20551;-58
2021/07/04 03:26:06;;;;;;;12.27;7.03;;;18.20;99.90;;;;;;5013158;28;20481;-58
2021/07/04 03:28:33;;;;;;;10.80;7.70;;;18.10;99.90;;;;;;5013125;28;20449;-58
2021/07/04 03:31:00;;;;;;;10.33;7.90;;;18.10;99.90;;;;;;5013132;28;20458;-58
2021/07/04 03:33:29;;;;;;;8.53;7.40;;;18.00;99.90;;;;;;5012520;28;20500;-58
2021/07/04 03:35:56;;;;;;;8.00;6.93;;;18.10;99.90;;;;;;5012378;28;20489;-58
2021/07/04 03:38:23;;;;;;;8.67;7.60;;;18.10;99.90;;;;;;5013257;28;20516;-58
2021/07/04 03:40:51;;;;;;;9.40;7.17;;;18.10;99.90;;;;;;5013169;28;20457;-58
2021/07/04 03:43:18;;;;;;;9.30;8.03;;;18.20;99.90;;;;;;5012550;28;20536;-58
2021/07/04 03:45:45;;;;;;;8.63;7.53;;;18.20;99.90;;;;;;5012901;28;20531;-58
2021/07/04 03:48:12;;;;;;;7.63;6.87;;;18.10;99.90;;;;;;5013012;28;20456;-58
2021/07/04 03:50:39;;;;;;;9.40;7.33;;;18.20;99.90;;;;;;5012631;28;20454;-58
2021/07/04 03:53:06;;;;;;;8.50;7.33;;;18.20;99.90;;;;;;5012034;28;20441;-58
2021/07/04 03:55:33;;;;;;;9.10;7.30;;;18.20;99.90;;;;;;5012730;28;20462;-58
2021/07/04 03:58:02;;;;;;;8.87;6.67;;;18.30;99.90;;;;;;5012705;28;20955;-58
2021/07/04 04:00:28;;;;;;;10.07;7.60;;;18.30;99.90;;;;;;5012714;28;20449;-58
2021/07/04 04:02:55;;;;;;;7.60;6.70;;;18.30;99.90;;;;;;5011977;28;20473;-57
2021/07/04 04:05:22;;;;;;;8.30;7.17;;;18.30;99.90;;;;;;5012004;28;20469;-58
2021/07/04 04:07:49;;;;;;;7.67;6.87;;;18.30;99.90;;;;;;5010154;28;20450;-58
2021/07/04 04:10:18;;;;;;;9.50;7.70;;;18.30;99.90;;;;;;5012333;28;20504;-58
2021/07/04 04:12:45;;;;;;;9.53;7.70;;;18.30;99.90;;;;;;5011414;28;20446;-58
2021/07/04 04:15:14;;;;;;;8.63;7.73;;;18.30;99.90;;;;;;5012256;28;20527;-58
2021/07/04 04:17:41;;;;;;;12.50;7.77;;;18.40;99.90;;;;;;5012262;28;20545;-58
2021/07/04 04:20:10;;;;;;;8.33;7.10;;;18.30;99.90;;;;;;5012490;28;20507;-58
2021/07/04 04:22:37;;;;;;;8.77;6.90;;;18.30;99.90;;;;;;5011246;28;20477;-57
2021/07/04 04:25:05;;;;;;;8.80;7.93;;;18.20;99.90;;;;;;5011925;28;20511;-58
2021/07/04 04:27:32;;;;;;;11.20;7.80;;;18.20;99.90;;;;;;5011567;28;20454;-58
2021/07/04 04:29:59;;;;;;;9.73;8.53;;;18.20;99.90;;;;;;5012151;28;20530;-59
2021/07/04 04:32:27;;;;;;;10.63;8.07;;;18.10;99.90;;;;;;5011894;28;20544;-58
2021/07/04 04:34:54;;;;;;;9.90;8.10;;;18.10;99.90;;;;;;5011960;28;21001;-58
2021/07/04 04:37:21;;;;;;;8.63;7.23;;;18.20;99.90;;;;;;5012183;28;20453;-58
2021/07/04 04:39:48;;;;;;;8.57;6.97;;;18.20;99.90;;;;;;5011955;28;20453;-58
2021/07/04 04:42:15;;;;;;;7.63;6.70;;;18.20;99.90;;;;;;5011678;28;21007;-58
2021/07/04 04:44:42;;;;;;;7.73;6.93;;;18.30;99.90;;;;;;5011979;28;20449;-58
2021/07/04 04:47:09;;;;;;;9.00;7.20;;;18.30;99.90;;;;;;5011755;28;20474;-59
2021/07/04 04:49:37;;;;;;;9.20;6.70;;;18.20;99.90;;;;;;5012032;28;20449;-59
2021/07/04 04:52:05;;;;;;;8.40;6.80;;;18.20;99.90;;;;;;5011433;28;20457;-58
2021/07/04 04:54:32;;;;;;;8.67;7.77;;;18.20;99.90;;;;;;5011445;28;20805;-58
2021/07/04 04:57:05;;;;;;;9.03;6.63;;;18.30;99.90;;;;;;5011808;28;20465;-59
2021/07/04 04:59:34;;;;;;;13.63;7.50;;;18.20;99.90;;;;;;5011738;28;20545;-58
2021/07/04 05:02:01;;;;;;;9.60;6.50;;;18.20;99.90;;;;;;5011547;28;20544;-58
2021/07/04 05:04:28;;;;;;;7.57;6.77;;;18.20;99.90;;;;;;5011446;28;20449;-59
2021/07/04 05:06:57;;;;;;;8.17;7.20;;;18.20;99.90;;;;;;5010680;28;20531;-58
2021/07/04 05:09:25;;;;;;;8.20;6.50;;;18.20;99.90;;;;;;5001322;28;20944;-58
2021/07/04 05:11:52;;;;;;;9.37;7.43;;;18.20;99.90;;;;;;5006837;28;20512;-58
2021/07/04 05:14:20;;;;;;;9.67;7.33;;;18.20;99.90;;;;;;5010100;28;20508;-58
2021/07/04 05:16:48;;;;;;;10.73;6.90;;;18.20;99.90;;;;;;5003223;28;20477;-58
2021/07/04 05:19:15;;;;;;;7.10;6.37;;;18.40;99.90;;;;;;5009028;28;20963;-59
2021/07/04 05:21:42;;;;;;;9.23;6.67;;;18.50;99.90;;;;;;4999908;28;20447;-58
2021/07/04 05:24:13;;;;;;;9.93;6.07;;;18.60;99.90;;;;;;5012472;28;21009;-58
2021/07/04 05:26:40;;;;;;;6.53;5.10;;;18.60;99.90;;;;;;5014917;28;20465;-58
2021/07/04 05:29:08;;;;;;;6.80;6.17;;;18.70;99.90;;;;;;5001732;28;20447;-59
2021/07/04 05:31:35;;;;;;;6.90;6.20;;;18.60;99.90;;;;;;4995478;28;20443;-58
2021/07/04 05:34:02;;;;;;;6.10;5.50;;;18.80;99.90;;;;;;5010316;28;20445;-58
2021/07/04 05:36:29;;;;;;;8.70;6.00;;;18.90;99.90;;;;;;5012196;28;20473;-58
2021/07/04 05:38:56;;;;;;;7.57;5.30;;;19.00;99.90;;;;;;5014090;28;20441;-58
2021/07/04 05:41:25;;;;;;;12.17;6.43;;;19.10;99.90;;;;;;5009364;28;20485;-58
2021/07/04 05:43:52;;;;;;;6.30;5.70;;;19.10;99.90;;;;;;4994797;28;21137;-58
2021/07/04 05:46:19;;;;;;;6.13;5.53;;;19.10;99.90;;;;;;4997797;28;20474;-58
2021/07/04 05:48:47;;;;;;;6.07;5.47;;;19.20;99.90;;;;;;5002188;28;20511;-58
2021/07/04 05:51:15;;;;;;;6.73;5.03;;;19.40;99.90;;;;;;5004140;28;20469;-58
2021/07/04 05:53:43;;;;;;;5.93;4.33;;;19.60;99.90;;;;;;5013436;28;20499;-58
2021/07/04 05:56:10;;;;;;;6.27;5.40;;;19.70;99.90;;;;;;5014264;28;20589;-58
2021/07/04 05:58:38;;;;;;;5.60;5.10;;;19.80;99.90;;;;;;5014318;28;20874;-58
2021/07/04 06:01:05;;;;;;;5.73;5.00;;;19.80;99.90;;;;;;5014381;28;20446;-58
2021/07/04 06:03:33;;;;;;;6.03;5.43;;;19.80;99.90;;;;;;5013882;28;20477;-58
2021/07/04 06:06:00;;;;;;;5.83;5.20;;;19.80;99.90;;;;;;5012313;28;20480;-58
2021/07/04 06:08:28;;;;;;;6.67;5.43;;;19.90;99.90;;;;;;5003972;28;20480;-58
2021/07/04 06:10:54;;;;;;;5.40;4.90;;;20.20;99.90;;;;;;5010383;28;20446;-58
2021/07/04 06:13:22;;;;;;;5.70;5.10;;;20.50;99.90;;;;;;4998530;28;20501;-57
2021/07/04 06:15:51;;;;;;;6.43;5.10;;;21.50;99.90;;;;;;5009273;28;20489;-58
2021/07/04 06:18:18;;;;;;;6.00;5.40;;;22.60;99.90;;;;;;5012277;28;20849;-58
2021/07/04 06:20:45;;;;;;;5.87;5.30;;;22.70;99.90;;;;;;5009957;28;20442;-58
2021/07/04 06:23:12;;;;;;;5.53;4.37;;;22.80;99.90;;;;;;5013403;28;20485;-58
2021/07/04 06:25:39;;;;;;;4.53;4.10;;;23.60;99.90;;;;;;5013873;28;20489;-58
2021/07/04 06:28:06;;;;;;;6.80;5.80;;;23.90;99.90;;;;;;5009640;28;20445;-58
2021/07/04 06:30:34;;;;;;;6.73;5.93;;;23.60;99.90;;;;;;5010104;28;20450;-58
2021/07/04 06:33:02;;;;;;;7.23;5.47;;;23.30;99.90;;;;;;5008831;28;20445;-58
2021/07/04 06:35:29;;;;;;;6.40;5.50;;;22.80;99.90;;;;;;5010226;28;20980;-58
2021/07/04 06:37:56;;;;;;;5.60;5.10;;;22.40;99.90;;;;;;5007874;28;20470;-58
2021/07/04 06:40:23;;;;;;;7.43;5.73;;;22.40;99.90;;;;;;5006230;28;20466;-58
2021/07/04 06:42:51;;;;;;;6.37;5.70;;;22.10;99.90;;;;;;5012233;28;20441;-58
2021/07/04 06:45:18;;;;;;;5.93;5.20;;;21.90;99.90;;;;;;5007364;28;20470;-58
2021/07/04 06:47:48;;;;;;;6.03;5.30;;;21.70;99.90;;;;;;4995701;28;20443;-58
2021/07/04 06:50:17;;;;;;;6.00;5.30;;;21.80;99.90;;;;;;5009161;28;20497;-58
2021/07/04 06:52:45;;;;;;;5.90;5.40;;;22.00;99.90;;;;;;5009323;28;20499;-58
2021/07/04 06:55:12;;;;;;;12.57;5.03;;;22.10;99.90;;;;;;5011512;28;20470;-57
2021/07/04 06:57:40;;;;;;;6.20;5.60;;;22.60;99.90;;;;;;5012684;28;20445;-58
2021/07/04 07:00:09;;;;;;;4.33;4.03;;;23.80;99.90;;;;;;5007058;28;20453;-58
2021/07/04 07:02:36;;;;;;;3.87;3.57;;;25.20;99.90;;;;;;5004749;28;20461;-58
2021/07/04 07:05:04;;;;;;;4.33;3.73;;;26.40;99.90;;;;;;5008277;28;20452;-58
2021/07/04 07:07:33;;;;;;;4.00;3.70;;;26.90;99.90;;;;;;5002459;28;20473;-58
2021/07/04 07:10:00;;;;;;;5.87;4.40;;;26.40;99.90;;;;;;5005044;28;20477;-59
2021/07/04 07:12:27;;;;;;;4.45;4.05;;;26.10;99.90;;;;;;5004492;28;20533;-59
2021/07/04 07:14:55;;;;;;;4.37;4.07;;;25.70;99.90;;;;;;5001295;28;20298;-59
2021/07/04 07:17:22;;;;;;;4.50;4.10;;;25.40;99.90;;;;;;5004270;28;20468;-58
2021/07/04 07:19:49;;;;;;;4.40;4.00;;;24.90;99.90;;;;;;5003590;28;20527;-58
2021/07/04 07:22:17;;;;;;;4.67;4.17;;;24.70;99.90;;;;;;5002853;28;20524;-58
2021/07/04 07:24:46;;;;;;;4.67;4.10;;;24.70;99.90;;;;;;5004757;28;20535;-57
2021/07/04 07:27:13;;;;;;;4.90;4.27;;;24.70;99.90;;;;;;5006409;28;20486;-58
2021/07/04 07:29:40;;;;;;;7.23;4.27;;;25.80;99.90;;;;;;5004357;28;20470;-58
2021/07/04 07:32:07;;;;;;;4.90;4.10;;;26.60;99.90;;;;;;5003526;28;20895;-58
2021/07/04 07:34:34;;;;;;;5.33;4.60;;;27.70;99.90;;;;;;5007162;28;20457;-58
2021/07/04 07:37:01;;;;;;;6.70;5.10;;;28.80;99.90;;;;;;5005780;28;20481;-58
2021/07/04 07:39:28;;;;;;;4.43;4.13;;;29.10;99.90;;;;;;5008768;28;20461;-59
2021/07/04 07:41:57;;;;;;;4.40;4.10;;;28.80;99.90;;;;;;5006187;28;20466;-58
2021/07/04 07:44:24;;;;;;;5.20;4.77;;;28.90;99.90;;;;;;5003733;28;22414;-58
2021/07/04 07:46:51;;;;;;;5.17;4.77;;;28.50;99.90;;;;;;5007594;28;20564;-59
2021/07/04 07:49:19;;;;;;;5.07;4.20;;;28.10;99.90;;;;;;5009424;28;20469;-59
2021/07/04 07:51:50;;;;;;;5.20;4.70;;;27.80;99.90;;;;;;5006123;28;20501;-59
2021/07/04 07:54:17;;;;;;;5.23;4.50;;;27.30;99.90;;;;;;5005517;28;21022;-59
2021/07/04 07:56:44;;;;;;;4.60;4.20;;;27.50;99.90;;;;;;5010632;28;20469;-59
2021/07/04 07:59:14;;;;;;;5.00;4.50;;;27.80;99.90;;;;;;5007247;28;20477;-59
2021/07/04 08:01:41;;;;;;;4.73;4.40;;;28.20;99.90;;;;;;5009466;28;20474;-58
2021/07/04 08:04:08;;;;;;;4.50;4.10;;;28.00;99.90;;;;;;5004230;28;20481;-58
2021/07/04 08:06:35;;;;;;;4.83;4.43;;;27.60;99.90;;;;;;5010791;28;21076;-59
2021/07/04 08:09:02;;;;;;;4.87;4.20;;;27.00;99.90;;;;;;5010286;28;20441;-59
2021/07/04 08:14:53;;;;;;;4.40;4.00;;;26.00;99.90;;;;;;5005414;28;20945;-59
2021/07/04 08:17:20;;;;;;;4.90;4.50;;;25.30;99.90;;;;;;5007501;28;20445;-58
2021/07/04 08:19:47;;;;;;;4.93;4.53;;;24.90;99.90;;;;;;5006765;28;20462;-59
2021/07/04 08:22:14;;;;;;;5.37;4.97;;;24.60;99.90;;;;;;5004638;28;20449;-58
2021/07/04 08:24:41;;;;;;;5.63;5.13;;;24.50;99.90;;;;;;5010148;28;21029;-58
2021/07/04 08:27:08;;;;;;;6.07;5.47;;;23.70;99.90;;;;;;5010020;28;20481;-58
2021/07/04 08:29:35;;;;;;;5.23;4.73;;;23.40;99.90;;;;;;5008635;28;20461;-58
2021/07/04 08:32:04;;;;;;;12.80;5.27;;;23.10;99.90;;;;;;5009666;28;20967;-58
2021/07/04 08:34:31;;;;;;;5.23;4.77;;;22.90;99.90;;;;;;5010403;28;20508;-58
2021/07/04 08:36:59;;;;;;;6.60;5.10;;;22.90;99.90;;;;;;5003981;28;20482;-58
2021/07/04 08:39:26;;;;;;;5.33;4.93;;;23.10;99.90;;;;;;5002554;28;20540;-58
2021/07/04 08:41:55;;;;;;;5.97;4.90;;;22.80;99.90;;;;;;5005473;28;20462;-58
2021/07/04 08:44:23;;;;;;;5.43;4.90;;;22.70;99.90;;;;;;5009179;28;21001;-58
2021/07/04 08:46:52;;;;;;;5.37;4.87;;;22.50;99.90;;;;;;5005161;28;20486;-58
2021/07/04 08:49:20;;;;;;;5.00;4.50;;;22.60;99.90;;;;;;5004966;28;20552;-58
2021/07/04 08:51:50;;;;;;;5.20;4.70;;;22.90;99.90;;;;;;5010628;28;20468;-58
2021/07/04 08:54:18;;;;;;;5.33;4.90;;;23.10;99.90;;;;;;5011379;28;20476;-58
2021/07/04 08:56:51;;;;;;;5.30;4.80;;;23.40;99.90;;;;;;5010742;28;20490;-58
2021/07/04 08:59:18;;;;;;;5.57;5.07;;;23.00;99.90;;;;;;5007551;28;20466;-58
2021/07/04 09:01:50;;;;;;;6.30;4.43;;;23.00;99.90;;;;;;5007495;28;20488;-58
2021/07/04 09:04:20;;;;;;;5.30;4.80;;;23.20;99.90;;;;;;5004705;28;20849;-58
2021/07/04 09:06:52;;;;;;;4.67;4.27;;;23.90;99.90;;;;;;5006979;28;21022;-57
2021/07/04 09:09:24;;;;;;;4.23;3.83;;;24.40;99.90;;;;;;5001699;28;20988;-58
2021/07/04 09:12:03;;;;;;;6.70;4.50;;;25.00;99.90;;;;;;5008465;28;20503;-58
2021/07/04 09:14:37;;;;;;;4.43;4.03;;;25.40;99.90;;;;;;5007019;28;20472;-58
2021/07/04 09:17:06;;;;;;;4.00;3.60;;;25.00;99.90;;;;;;5061139;22;20508;-52
2021/07/04 09:19:34;;;;;;;4.70;4.20;;;25.40;99.90;;;;;;5075510;28;20465;-52
2021/07/04 09:22:04;;;;;;;5.10;4.60;;;25.80;99.90;;;;;;5076479;28;21012;-52
2021/07/04 09:24:33;;;;;;;3.73;3.50;;;25.70;99.90;;;;;;5079936;28;20478;-51
2021/07/04 09:27:01;;;;;;;4.20;3.90;;;25.70;99.90;;;;;;5067386;28;20480;-51
2021/07/04 09:29:55;;;;;;;3.53;3.23;;;25.20;99.90;;;;;;5049361;28;20530;-51
2021/07/04 09:32:24;;;;;;;3.73;3.43;;;25.20;99.90;;;;;;5018685;28;20451;-51
2021/07/04 09:35:02;;;;;;;3.60;3.30;;;24.90;99.90;;;;;;5052751;28;20454;-51
2021/07/04 09:37:32;;;;;;;4.17;3.87;;;24.40;99.90;;;;;;5048818;28;21003;-51
2021/07/04 09:40:11;;;;;;;3.53;3.23;;;24.40;99.90;;;;;;5041352;28;20466;-51
2021/07/04 09:42:57;;;;;;;4.10;3.80;;;24.60;99.90;;;;;;5043449;28;20456;-51
2021/07/04 09:45:26;;;;;;;4.87;3.37;;;24.40;99.90;;;;;;5040924;28;20557;-50
2021/07/04 09:47:54;;;;;;;3.40;3.20;;;23.90;99.90;;;;;;5041196;28;20463;-50
2021/07/04 09:50:24;;;;;;;3.87;3.57;;;23.00;99.90;;;;;;5041611;28;20464;-50
2021/07/04 09:52:59;;;;;;;3.77;3.47;;;22.60;99.90;;;;;;5042759;28;20454;-51
2021/07/04 09:55:26;;;;;;;3.40;3.10;;;22.60;99.90;;;;;;5057978;28;20517;-51
2021/07/04 09:57:56;;;;;;;3.70;3.37;;;22.60;99.90;;;;;;5042548;28;20528;-51
2021/07/04 10:00:25;;;;;;;3.13;2.93;;;22.90;99.90;;;;;;5042781;28;20522;-51
2021/07/04 10:03:10;;;;;;;4.47;3.00;;;23.10;99.90;;;;;;5040854;28;20472;-51
2021/07/04 10:05:40;;;;;;;3.20;2.97;;;23.30;99.90;;;;;;5041099;28;20582;-51
2021/07/04 10:08:24;;;;;;;3.63;3.33;;;23.60;99.90;;;;;;5042280;28;21038;-51
2021/07/04 10:10:54;;;;;;;3.53;3.23;;;22.90;99.90;;;;;;5043959;28;20456;-51
2021/07/04 10:13:21;;;;;;;4.03;3.73;;;22.70;99.90;;;;;;5042177;28;20948;-50
2021/07/04 10:15:48;;;;;;;3.83;3.50;;;22.30;99.90;;;;;;5045460;28;20490;-51
2021/07/04 10:18:17;;;;;;;4.07;3.77;;;22.40;99.90;;;;;;5038598;28;20479;-51
2021/07/04 10:20:47;;;;;;;4.07;3.77;;;22.70;99.90;;;;;;5035840;28;20449;-51
2021/07/04 10:23:16;;;;;;;5.33;4.70;;;23.00;99.90;;;;;;5038250;28;20848;-50
2021/07/04 10:25:44;;;;;;;4.50;4.10;;;23.00;99.90;;;;;;5046509;28;20475;-51
2021/07/04 10:28:13;;;;;;;4.20;3.80;;;22.60;99.90;;;;;;5046554;28;20460;-51
2021/07/04 10:30:41;;;;;;;5.00;3.80;;;22.50;99.90;;;;;;5047729;28;20459;-51
2021/07/04 10:33:15;;;;;;;5.43;4.13;;;22.80;99.90;;;;;;5058361;28;20460;-51
2021/07/04 10:36:14;;;;;;;4.20;3.80;;;22.60;99.90;;;;;;5061838;28;20431;-51
2021/07/04 10:38:57;;;;;;;3.50;3.30;;;22.90;99.90;;;;;;5051190;28;20470;-50
2021/07/04 10:41:29;;;;;;;3.80;3.50;;;23.40;99.90;;;;;;5053657;28;20481;-51
2021/07/04 10:44:06;;;;;;;4.73;4.33;;;23.40;99.90;;;;;;5045884;28;20975;-50
2021/07/04 10:47:02;;;;;;;4.00;3.50;;;23.20;99.90;;;;;;5045072;28;20479;-50
2021/07/04 10:49:36;;;;;;;4.07;3.77;;;23.90;99.90;;;;;;5046589;28;20555;-51
2021/07/04 10:52:06;;;;;;;4.77;4.37;;;24.00;99.90;;;;;;5039486;28;20468;-51
2021/07/04 10:54:51;;;;;;;4.67;4.27;;;24.20;99.90;;;;;;5045536;28;20445;-52
2021/07/04 10:57:22;;;;;;;4.70;4.27;;;24.30;99.90;;;;;;5048821;28;20564;-51
2021/07/04 11:00:13;;;;;;;4.60;4.20;;;24.20;99.90;;;;;;5038815;28;20893;-51
2021/07/04 11:02:42;;;;;;;4.80;4.40;;;23.80;99.90;;;;;;5045489;28;20447;-51
2021/07/04 11:05:10;;;;;;;3.87;3.57;;;23.90;99.90;;;;;;5052015;28;20509;-51
2021/07/04 11:08:09;;;;;;;4.33;4.00;;;24.30;99.90;;;;;;5052868;28;20533;-52
2021/07/04 11:10:39;;;;;;;4.20;3.90;;;24.60;99.90;;;;;;5053062;28;20455;-51
2021/07/04 11:13:29;;;;;;;3.60;3.30;;;24.20;99.90;;;;;;5050470;28;20444;-51
2021/07/04 11:16:25;;;;;;;6.53;3.90;;;24.40;99.90;;;;;;5040944;28;20554;-52
2021/07/04 11:19:09;;;;;;;4.10;3.80;;;24.40;99.90;;;;;;5043143;28;20448;-51
2021/07/04 11:22:03;;;;;;;4.60;3.83;;;24.30;99.90;;;;;;5044232;28;20497;-52
2021/07/04 11:24:31;;;;;;;5.20;4.70;;;24.10;99.90;;;;;;5034425;28;21008;-52
2021/07/04 11:27:25;;;;;;;4.27;3.97;;;23.70;99.90;;;;;;5050652;28;20464;-52
2021/07/04 11:30:26;;;;;;;4.17;3.80;;;23.40;99.90;;;;;;5050888;28;20449;-51
2021/07/04 11:33:33;;;;;;;4.37;3.90;;;23.20;99.90;;;;;;5047105;28;20461;-53
2021/07/04 11:36:07;;;;;;;4.33;3.93;;;23.30;99.90;;;;;;5041703;28;20953;-50
2021/07/04 11:38:37;;;;;;;4.40;3.70;;;23.40;99.90;;;;;;5044808;28;20451;-51
2021/07/04 11:41:07;;;;;;;5.23;4.70;;;23.50;99.90;;;;;;5035551;28;20451;-51
2021/07/04 11:43:38;;;;;;;4.27;3.97;;;23.70;99.90;;;;;;5050042;28;20418;-51
2021/07/04 11:46:07;;;;;;;4.17;3.87;;;23.30;99.90;;;;;;5050416;28;21053;-51
2021/07/04 11:48:47;;;;;;;5.30;4.00;;;23.30;99.90;;;;;;5050779;28;20440;-51
2021/07/04 11:51:22;;;;;;;3.83;3.53;;;23.30;99.90;;;;;;5038305;28;20503;-50
2021/07/04 11:53:51;;;;;;;4.20;3.80;;;23.20;99.90;;;;;;5045391;28;20454;-51
2021/07/04 11:56:20;;;;;;;5.00;4.13;;;23.10;99.90;;;;;;5044370;28;20463;-52
2021/07/04 11:58:47;;;;;;;5.30;4.67;;;22.80;99.90;;;;;;5049853;28;20451;-52
2021/07/04 12:01:20;;;;;;;4.90;4.50;;;22.50;99.90;;;;;;5047124;28;20463;-53
2021/07/04 12:03:52;;;;;;;5.97;3.97;;;22.70;99.90;;;;;;5045486;28;20472;-52
2021/07/04 12:06:19;;;;;;;4.10;3.80;;;22.90;99.90;;;;;;5039672;28;20534;-51
2021/07/04 12:08:54;;;;;;;4.37;3.80;;;23.30;99.90;;;;;;5051141;28;20444;-53
2021/07/04 12:11:40;;;;;;;4.37;3.97;;;23.80;99.90;;;;;;5043239;28;20794;-51
2021/07/04 12:14:22;;;;;;;4.30;3.90;;;23.80;99.90;;;;;;5032295;28;20449;-51
2021/07/04 12:16:50;;;;;;;3.70;3.40;;;23.90;99.90;;;;;;5035414;28;20499;-52
2021/07/04 12:19:32;;;;;;;3.33;3.03;;;24.10;99.90;;;;;;5039212;28;20452;-52
2021/07/04 12:22:01;;;;;;;3.87;3.50;;;24.20;99.90;;;;;;5050186;28;20447;-52
2021/07/04 12:24:39;;;;;;;4.27;3.97;;;24.30;99.90;;;;;;5050717;28;20505;-52
2021/07/04 12:27:08;;;;;;;4.23;3.93;;;24.20;99.90;;;;;;5050609;28;20517;-52
2021/07/04 12:30:01;;;;;;;4.20;3.90;;;24.20;99.90;;;;;;5050613;28;20452;-52
2021/07/04 12:32:30;;;;;;;3.73;3.43;;;24.20;99.90;;;;;;5049868;28;20452;-52
2021/07/04 12:34:58;;;;;;;4.70;4.30;;;24.30;99.90;;;;;;5050597;28;20444;-52
2021/07/04 12:37:25;;;;;;;4.50;4.10;;;24.20;99.90;;;;;;5050524;28;20521;-52
2021/07/04 12:40:07;;;;;;;5.00;4.30;;;23.50;99.90;;;;;;5050505;28;20456;-52
2021/07/04 12:42:35;;;;;;;4.67;3.70;;;22.90;99.90;;;;;;5036660;28;20455;-52
2021/07/04 12:45:04;;;;;;;5.90;4.60;;;22.80;99.90;;;;;;5031848;28;20587;-51
2021/07/04 12:47:31;;;;;;;5.57;4.40;;;22.70;99.90;;;;;;5033542;28;20569;-52
2021/07/04 12:50:03;;;;;;;4.43;4.03;;;22.70;99.90;;;;;;5051312;28;20455;-53
2021/07/04 12:52:30;;;;;;;4.50;4.10;;;22.80;99.90;;;;;;5051334;28;20505;-52
2021/07/04 12:54:57;;;;;;;3.90;3.60;;;22.90;99.90;;;;;;5036900;28;20441;-52
2021/07/04 12:57:32;;;;;;;4.57;4.17;;;23.00;99.90;;;;;;5033055;28;20472;-52
2021/07/04 13:00:12;;;;;;;4.70;4.30;;;23.00;99.90;;;;;;5051510;28;20473;-52
2021/07/04 13:02:47;;;;;;;4.87;4.47;;;23.00;99.90;;;;;;5050752;28;20824;-52